createdAt,value
2017-04-13T00:00:28.576Z,41.70
2017-04-13T00:01:26.556Z,42.11
2017-04-13T00:02:24.480Z,40.67
2017-04-13T00:03:22.389Z,41.64
2017-04-13T00:04:20.216Z,40.47
2017-04-13T00:05:18.093Z,40.43
2017-04-13T00:06:15.943Z,40.96
2017-04-13T00:07:13.844Z,41.01
2017-04-13T00:08:12.167Z,38.79
2017-04-13T00:09:10.134Z,42.04
2017-04-13T00:10:08.021Z,40.73
2017-04-13T00:11:06.249Z,41.04
2017-04-13T00:12:04.128Z,42.41
2017-04-13T00:13:02.000Z,40.91
2017-04-13T00:13:59.892Z,39.53
2017-04-13T00:14:57.844Z,40.94
2017-04-13T00:15:55.778Z,37.47
2017-04-13T00:16:53.765Z,39.53
2017-04-13T00:17:51.655Z,40.46
2017-04-13T00:18:49.833Z,38.70
2017-04-13T00:19:47.685Z,38.33
2017-04-13T00:20:45.630Z,38.63
2017-04-13T00:21:43.457Z,38.33
2017-04-13T00:22:41.302Z,36.81
2017-04-13T00:23:39.191Z,37.83
2017-04-13T00:24:37.156Z,39.41
2017-04-13T00:25:35.009Z,38.93
2017-04-13T00:26:32.835Z,37.01
2017-04-13T00:27:30.733Z,39.79
2017-04-13T00:28:28.581Z,38.63
2017-04-13T00:29:26.448Z,39.96
2017-04-13T00:30:24.283Z,39.30
2017-04-13T00:31:22.311Z,39.64
2017-04-13T00:32:20.185Z,39.50
2017-04-13T00:33:18.037Z,37.09
2017-04-13T00:34:15.885Z,36.57
2017-04-13T00:35:13.715Z,37.16
2017-04-13T00:36:11.590Z,38.17
2017-04-13T00:37:09.424Z,36.09
2017-04-13T00:38:07.428Z,39.60
2017-04-13T00:39:05.455Z,36.59
2017-04-13T00:40:03.315Z,39.64
2017-04-13T00:41:01.865Z,37.59
2017-04-13T00:41:59.724Z,36.13
2017-04-13T00:42:57.563Z,37.59
2017-04-13T00:43:55.439Z,38.99
2017-04-13T00:44:53.272Z,36.86
2017-04-13T00:45:51.137Z,37.27
2017-04-13T00:46:49.809Z,36.67
2017-04-13T00:47:47.684Z,37.31
2017-04-13T00:48:45.545Z,35.84
2017-04-13T00:49:43.368Z,39.01
2017-04-13T00:50:41.248Z,37.87
2017-04-13T00:51:39.072Z,35.59
2017-04-13T00:52:36.938Z,35.79
2017-04-13T00:53:34.912Z,39.70
2017-04-13T00:54:33.381Z,35.93
2017-04-13T00:55:31.228Z,34.93
2017-04-13T00:56:29.545Z,34.07
2017-04-13T00:57:27.753Z,35.21
2017-04-13T00:58:26.336Z,35.80
2017-04-13T00:59:24.907Z,36.06
2017-04-13T01:00:22.785Z,33.09
2017-04-13T01:01:21.193Z,33.96
2017-04-13T01:02:19.194Z,35.49
2017-04-13T01:03:17.057Z,35.81
2017-04-13T01:04:14.955Z,33.17
2017-04-13T01:05:12.912Z,37.10
2017-04-13T01:06:11.355Z,34.56
2017-04-13T01:07:09.204Z,36.56
2017-04-13T01:08:08.270Z,36.81
2017-04-13T01:09:06.772Z,36.07
2017-04-13T01:10:04.847Z,37.80
2017-04-13T01:11:03.505Z,34.56
2017-04-13T01:12:01.669Z,35.37
2017-04-13T01:13:03.238Z,36.01
2017-04-13T01:14:01.655Z,36.97
2017-04-13T01:15:00.061Z,35.93
2017-04-13T01:15:58.578Z,38.89
2017-04-13T01:16:57.219Z,35.40
2017-04-13T01:17:55.291Z,36.97
2017-04-13T01:18:54.029Z,35.99
2017-04-13T01:19:52.485Z,33.67
2017-04-13T01:20:50.920Z,35.13
2017-04-13T01:21:48.987Z,34.23
2017-04-13T01:22:47.344Z,36.96
2017-04-13T01:23:48.294Z,33.86
2017-04-13T01:24:50.113Z,36.46
2017-04-13T01:25:48.391Z,35.14
2017-04-13T01:26:46.897Z,32.86
2017-04-13T01:27:45.212Z,35.43
2017-04-13T01:28:43.536Z,33.26
2017-04-13T01:29:41.348Z,34.97
2017-04-13T01:30:39.571Z,35.80
2017-04-13T01:31:37.686Z,35.93
2017-04-13T01:32:36.212Z,35.93
2017-04-13T01:33:34.047Z,35.19
2017-04-13T01:34:31.863Z,34.83
2017-04-13T01:35:29.676Z,34.47
2017-04-13T01:36:27.758Z,38.40
2017-04-13T01:37:25.651Z,37.10
2017-04-13T01:38:23.489Z,34.53
2017-04-13T01:39:21.485Z,34.27
2017-04-13T01:40:19.321Z,35.34
2017-04-13T01:41:17.204Z,34.40
2017-04-13T01:42:15.097Z,35.26
2017-04-13T01:43:13.085Z,32.66
2017-04-13T01:44:10.892Z,33.84
2017-04-13T01:45:08.713Z,34.91
2017-04-13T01:46:06.535Z,33.89
2017-04-13T01:47:04.432Z,34.76
2017-04-13T01:48:02.282Z,33.89
2017-04-13T01:49:00.105Z,35.61
2017-04-13T01:49:58.011Z,33.91
2017-04-13T01:50:55.817Z,35.33
2017-04-13T01:51:53.779Z,34.60
2017-04-13T01:52:51.692Z,33.29
2017-04-13T01:53:49.515Z,34.53
2017-04-13T01:54:47.493Z,34.49
2017-04-13T01:55:45.295Z,32.86
2017-04-13T01:56:43.296Z,34.06
2017-04-13T01:57:41.101Z,34.14
2017-04-13T01:58:39.030Z,33.44
2017-04-13T01:59:36.920Z,34.61
2017-04-13T02:00:35.044Z,34.60
2017-04-13T02:01:32.984Z,35.79
2017-04-13T02:02:31.014Z,35.41
2017-04-13T02:03:28.821Z,35.04
2017-04-13T02:04:26.668Z,33.24
2017-04-13T02:05:24.484Z,34.09
2017-04-13T02:06:22.305Z,36.39
2017-04-13T02:07:20.175Z,36.24
2017-04-13T02:08:18.001Z,35.16
2017-04-13T02:09:15.804Z,34.59
2017-04-13T02:10:13.676Z,35.61
2017-04-13T02:11:11.539Z,33.40
2017-04-13T02:12:09.407Z,34.47
2017-04-13T02:13:07.289Z,33.21
2017-04-13T02:14:05.112Z,34.04
2017-04-13T02:15:02.965Z,34.70
2017-04-13T02:16:00.795Z,33.11
2017-04-13T02:16:59.828Z,35.09
2017-04-13T02:18:00.807Z,33.19
2017-04-13T02:18:59.488Z,34.10
2017-04-13T02:19:58.507Z,32.74
2017-04-13T02:20:57.489Z,35.16
2017-04-13T02:21:56.809Z,34.69
2017-04-13T02:22:56.082Z,34.64
2017-04-13T02:23:55.287Z,32.53
2017-04-13T02:24:53.717Z,35.46
2017-04-13T02:25:52.475Z,36.57
2017-04-13T02:26:51.733Z,32.57
2017-04-13T02:27:50.817Z,35.46
2017-04-13T02:28:49.726Z,33.46
2017-04-13T02:29:47.827Z,32.87
2017-04-13T02:30:45.970Z,33.51
2017-04-13T02:31:50.045Z,36.21
2017-04-13T02:32:48.531Z,34.04
2017-04-13T02:33:47.086Z,32.87
2017-04-13T02:34:44.888Z,33.37
2017-04-13T02:35:43.227Z,32.04
2017-04-13T02:36:41.623Z,35.89
2017-04-13T02:37:39.420Z,34.11
2017-04-13T02:38:37.263Z,35.76
2017-04-13T02:39:35.332Z,35.63
2017-04-13T02:40:33.416Z,34.04
2017-04-13T02:41:32.174Z,34.00
2017-04-13T02:42:30.059Z,34.54
2017-04-13T02:43:27.935Z,37.99
2017-04-13T02:44:26.094Z,37.23
2017-04-13T02:45:24.368Z,33.27
2017-04-13T02:46:22.463Z,38.11
2017-04-13T02:47:20.777Z,36.57
2017-04-13T02:48:18.596Z,38.10
2017-04-13T02:49:16.737Z,36.73
2017-04-13T02:50:14.860Z,36.73
2017-04-13T02:51:13.574Z,36.96
2017-04-13T02:52:11.821Z,39.37
2017-04-13T02:53:09.855Z,40.23
2017-04-13T02:54:08.028Z,37.71
2017-04-13T02:55:05.917Z,39.86
2017-04-13T02:56:04.223Z,40.09
2017-04-13T02:57:02.049Z,41.60
2017-04-13T02:57:59.881Z,38.99
2017-04-13T02:58:57.791Z,40.11
2017-04-13T02:59:55.652Z,38.30
2017-04-13T03:00:53.478Z,41.20
2017-04-13T03:01:51.341Z,39.56
2017-04-13T03:02:49.212Z,38.27
2017-04-13T03:03:47.031Z,43.33
2017-04-13T03:04:44.905Z,39.80
2017-04-13T03:05:42.805Z,40.21
2017-04-13T03:06:40.640Z,38.63
2017-04-13T03:07:38.652Z,39.33
2017-04-13T03:08:36.445Z,40.66
2017-04-13T03:09:34.401Z,38.11
2017-04-13T03:10:32.217Z,41.93
2017-04-13T03:11:30.039Z,42.50
2017-04-13T03:12:27.864Z,41.19
2017-04-13T03:13:25.655Z,39.00
2017-04-13T03:14:23.597Z,39.20
2017-04-13T03:15:21.634Z,39.64
2017-04-13T03:16:19.481Z,40.71
2017-04-13T03:17:17.324Z,40.76
2017-04-13T03:18:15.140Z,41.47
2017-04-13T03:19:13.031Z,40.59
2017-04-13T03:20:10.850Z,39.89
2017-04-13T03:21:08.730Z,39.39
2017-04-13T03:22:06.649Z,41.47
2017-04-13T03:23:04.542Z,40.63
2017-04-13T03:24:02.411Z,41.93
2017-04-13T03:25:00.360Z,37.87
2017-04-13T03:25:58.181Z,39.56
2017-04-13T03:26:56.129Z,39.99
2017-04-13T03:27:54.037Z,39.10
2017-04-13T03:28:51.887Z,40.51
2017-04-13T03:29:49.731Z,40.47
2017-04-13T03:30:47.624Z,41.00
2017-04-13T03:31:45.555Z,40.14
2017-04-13T03:32:43.411Z,40.79
2017-04-13T03:33:41.332Z,39.60
2017-04-13T03:34:39.179Z,42.17
2017-04-13T03:35:36.981Z,42.10
2017-04-13T03:36:34.977Z,37.94
2017-04-13T03:37:33.055Z,41.54
2017-04-13T03:38:30.864Z,38.57
2017-04-13T03:39:28.666Z,38.39
2017-04-13T03:40:26.590Z,40.14
2017-04-13T03:41:24.610Z,40.17
2017-04-13T03:42:22.431Z,39.91
2017-04-13T03:43:20.226Z,41.71
2017-04-13T03:44:18.040Z,39.81
2017-04-13T03:45:15.964Z,39.14
2017-04-13T03:46:13.831Z,39.90
2017-04-13T03:47:11.737Z,39.77
2017-04-13T03:48:09.599Z,35.77
2017-04-13T03:49:07.456Z,37.54
2017-04-13T03:50:05.400Z,40.47
2017-04-13T03:51:03.271Z,38.53
2017-04-13T03:52:01.123Z,40.56
2017-04-13T03:52:59.007Z,39.79
2017-04-13T03:53:56.995Z,38.33
2017-04-13T03:54:54.845Z,40.30
2017-04-13T03:55:53.091Z,41.31
2017-04-13T03:56:50.919Z,38.14
2017-04-13T03:57:48.772Z,41.63
2017-04-13T03:58:46.604Z,37.86
2017-04-13T03:59:44.501Z,39.40
2017-04-13T04:00:42.367Z,40.94
2017-04-13T04:01:40.213Z,40.61
2017-04-13T04:02:38.045Z,40.39
2017-04-13T04:03:35.863Z,39.97
2017-04-13T04:04:33.655Z,39.39
2017-04-13T04:05:31.458Z,41.56
2017-04-13T04:06:29.260Z,41.39
2017-04-13T04:07:27.184Z,40.04
2017-04-13T04:08:25.145Z,39.76
2017-04-13T04:09:22.971Z,40.60
2017-04-13T04:10:20.895Z,40.64
2017-04-13T04:11:18.735Z,41.73
2017-04-13T04:12:16.600Z,43.60
2017-04-13T04:13:14.399Z,42.56
2017-04-13T04:14:12.408Z,42.26
2017-04-13T04:15:10.287Z,43.43
2017-04-13T04:16:08.127Z,44.39
2017-04-13T04:17:06.023Z,39.11
2017-04-13T04:18:03.848Z,40.99
2017-04-13T04:19:01.807Z,43.17
2017-04-13T04:19:59.643Z,41.20
2017-04-13T04:20:57.569Z,42.31
2017-04-13T04:21:55.653Z,42.33
2017-04-13T04:22:53.511Z,43.10
2017-04-13T04:23:51.344Z,43.03
2017-04-13T04:24:49.262Z,40.96
2017-04-13T04:25:47.100Z,44.01
2017-04-13T04:26:45.031Z,44.90
2017-04-13T04:27:42.866Z,44.91
2017-04-13T04:28:40.749Z,45.89
2017-04-13T04:29:38.557Z,45.64
2017-04-13T04:30:41.719Z,45.69
2017-04-13T04:31:45.143Z,46.09
2017-04-13T04:32:49.178Z,44.51
2017-04-13T04:33:47.220Z,46.89
2017-04-13T04:34:57.767Z,45.33
2017-04-13T04:35:55.608Z,47.60
2017-04-13T04:36:53.453Z,45.16
2017-04-13T04:37:51.273Z,47.69
2017-04-13T04:38:49.118Z,46.10
2017-04-13T04:39:46.960Z,49.66
2017-04-13T04:40:44.808Z,49.16
2017-04-13T04:41:42.987Z,47.66
2017-04-13T04:42:40.824Z,49.91
2017-04-13T04:43:38.700Z,51.53
2017-04-13T04:44:36.557Z,49.69
2017-04-13T04:45:34.419Z,47.80
2017-04-13T04:46:32.265Z,47.59
2017-04-13T04:47:30.195Z,48.13
2017-04-13T04:48:28.024Z,48.57
2017-04-13T04:49:25.835Z,47.61
2017-04-13T04:50:23.693Z,48.47
2017-04-13T04:51:21.524Z,49.33
2017-04-13T04:52:19.429Z,47.59
2017-04-13T04:53:17.287Z,47.33
2017-04-13T04:54:15.142Z,49.14
2017-04-13T04:55:13.045Z,50.01
2017-04-13T04:56:10.844Z,51.99
2017-04-13T04:57:08.851Z,48.51
2017-04-13T04:58:06.688Z,49.91
2017-04-13T04:59:04.497Z,48.71
2017-04-13T05:00:02.444Z,46.10
2017-04-13T05:01:00.613Z,47.50
2017-04-13T05:01:58.436Z,50.10
2017-04-13T05:02:56.235Z,49.53
2017-04-13T05:03:54.075Z,47.07
2017-04-13T05:04:54.164Z,46.93
2017-04-13T05:05:55.965Z,46.40
2017-04-13T05:06:55.490Z,46.36
2017-04-13T05:07:56.529Z,45.69
2017-04-13T05:08:56.459Z,48.36
2017-04-13T05:09:55.030Z,47.70
2017-04-13T05:10:52.905Z,45.67
2017-04-13T05:11:50.763Z,43.49
2017-04-13T05:12:48.599Z,44.99
2017-04-13T05:13:46.508Z,47.29
2017-04-13T05:14:44.392Z,44.39
2017-04-13T05:15:42.208Z,44.87
2017-04-13T05:16:40.057Z,47.73
2017-04-13T05:17:37.904Z,44.27
2017-04-13T05:18:35.750Z,49.01
2017-04-13T05:19:33.598Z,45.71
2017-04-13T05:20:31.527Z,45.36
2017-04-13T05:21:29.445Z,43.10
2017-04-13T05:22:27.371Z,43.94
2017-04-13T05:23:25.271Z,43.89
2017-04-13T05:24:23.119Z,44.93
2017-04-13T05:25:21.008Z,42.57
2017-04-13T05:26:18.860Z,42.80
2017-04-13T05:27:16.666Z,45.07
2017-04-13T05:28:14.541Z,44.29
2017-04-13T05:29:12.420Z,43.80
2017-04-13T05:30:10.367Z,46.14
2017-04-13T05:31:08.227Z,43.87
2017-04-13T05:32:06.081Z,44.91
2017-04-13T05:33:04.028Z,43.13
2017-04-13T05:34:01.953Z,44.53
2017-04-13T05:34:59.823Z,47.21
2017-04-13T05:35:57.678Z,44.11
2017-04-13T05:36:55.932Z,46.80
2017-04-13T05:37:53.841Z,43.40
2017-04-13T05:38:51.656Z,45.20
2017-04-13T05:39:49.528Z,43.41
2017-04-13T05:40:47.378Z,44.83
2017-04-13T05:41:45.247Z,43.50
2017-04-13T05:42:43.169Z,42.11
2017-04-13T05:43:41.075Z,45.03
2017-04-13T05:44:38.896Z,46.10
2017-04-13T05:45:36.749Z,40.83
2017-04-13T05:46:34.563Z,43.21
2017-04-13T05:47:32.442Z,40.09
2017-04-13T05:48:30.313Z,41.90
2017-04-13T05:49:28.323Z,40.49
2017-04-13T05:50:26.132Z,40.33
2017-04-13T05:51:24.040Z,43.44
2017-04-13T05:52:21.885Z,39.87
2017-04-13T05:53:19.698Z,40.60
2017-04-13T05:54:17.531Z,40.43
2017-04-13T05:55:15.401Z,41.07
2017-04-13T05:56:13.235Z,41.30
2017-04-13T05:57:11.067Z,41.51
2017-04-13T05:58:09.028Z,41.59
2017-04-13T05:59:06.889Z,42.21
2017-04-13T06:00:04.779Z,42.00
2017-04-13T06:01:02.621Z,42.81
2017-04-13T06:02:00.580Z,39.47
2017-04-13T06:02:58.468Z,42.17
2017-04-13T06:03:56.383Z,43.66
2017-04-13T06:04:54.305Z,42.13
2017-04-13T06:05:52.213Z,40.64
2017-04-13T06:06:50.093Z,40.86
2017-04-13T06:07:47.973Z,42.24
2017-04-13T06:08:46.180Z,41.69
2017-04-13T06:09:44.032Z,41.99
2017-04-13T06:10:41.865Z,42.07
2017-04-13T06:11:39.663Z,42.63
2017-04-13T06:12:37.477Z,44.44
2017-04-13T06:13:35.332Z,42.19
2017-04-13T06:14:33.199Z,41.76
2017-04-13T06:15:31.068Z,42.03
2017-04-13T06:16:28.873Z,43.74
2017-04-13T06:17:26.716Z,43.13
2017-04-13T06:18:24.492Z,42.60
2017-04-13T06:19:22.307Z,40.79
2017-04-13T06:20:20.305Z,39.11
2017-04-13T06:21:18.122Z,41.94
2017-04-13T06:22:16.046Z,38.99
2017-04-13T06:23:13.899Z,40.93
2017-04-13T06:24:11.738Z,41.40
2017-04-13T06:25:09.704Z,41.96
2017-04-13T06:26:07.583Z,39.29
2017-04-13T06:27:05.557Z,39.93
2017-04-13T06:28:03.407Z,39.03
2017-04-13T06:29:01.309Z,40.96
2017-04-13T06:29:59.167Z,41.21
2017-04-13T06:30:57.014Z,41.43
2017-04-13T06:31:54.906Z,39.36
2017-04-13T06:32:52.730Z,38.54
2017-04-13T06:33:50.708Z,38.86
2017-04-13T06:34:48.533Z,38.77
2017-04-13T06:35:46.469Z,38.00
2017-04-13T06:36:44.320Z,39.37
2017-04-13T06:37:42.135Z,38.66
2017-04-13T06:38:40.095Z,40.53
2017-04-13T06:39:37.932Z,38.60
2017-04-13T06:40:35.906Z,34.53
2017-04-13T06:41:33.751Z,37.59
2017-04-13T06:42:31.745Z,38.11
2017-04-13T06:43:29.591Z,36.63
2017-04-13T06:44:27.423Z,35.11
2017-04-13T06:45:25.317Z,35.23
2017-04-13T06:46:23.130Z,34.86
2017-04-13T06:47:21.160Z,35.33
2017-04-13T06:48:18.944Z,36.19
2017-04-13T06:49:16.924Z,36.74
2017-04-13T06:50:14.912Z,38.29
2017-04-13T06:51:12.761Z,39.19
2017-04-13T06:52:10.592Z,36.54
2017-04-13T06:53:08.397Z,36.34
2017-04-13T06:54:06.306Z,38.74
2017-04-13T06:55:04.209Z,37.10
2017-04-13T06:56:02.222Z,37.34
2017-04-13T06:57:00.040Z,36.20
2017-04-13T06:57:57.884Z,35.39
2017-04-13T06:58:55.773Z,36.03
2017-04-13T06:59:53.659Z,34.10
2017-04-13T07:00:51.520Z,33.40
2017-04-13T07:01:49.459Z,35.20
2017-04-13T07:02:53.688Z,35.37
2017-04-13T07:03:51.546Z,34.36
2017-04-13T07:04:49.376Z,36.01
2017-04-13T07:05:47.393Z,35.59
2017-04-13T07:06:45.338Z,35.51
2017-04-13T07:07:43.197Z,36.84
2017-04-13T07:08:41.078Z,37.17
2017-04-13T07:09:38.924Z,36.46
2017-04-13T07:10:36.724Z,36.23
2017-04-13T07:11:34.581Z,35.53
2017-04-13T07:12:32.578Z,40.03
2017-04-13T07:13:30.460Z,38.00
2017-04-13T07:14:28.319Z,36.99
2017-04-13T07:15:26.264Z,35.24
2017-04-13T07:16:24.107Z,36.94
2017-04-13T07:17:22.031Z,36.76
2017-04-13T07:18:19.867Z,35.33
2017-04-13T07:19:17.817Z,37.49
2017-04-13T07:20:15.645Z,37.19
2017-04-13T07:21:13.494Z,36.64
2017-04-13T07:22:11.383Z,37.13
2017-04-13T07:23:09.257Z,37.73
2017-04-13T07:24:07.179Z,38.60
2017-04-13T07:25:05.021Z,38.51
2017-04-13T07:26:02.936Z,37.99
2017-04-13T07:27:00.818Z,36.00
2017-04-13T07:27:58.690Z,38.11
2017-04-13T07:28:56.609Z,37.09
2017-04-13T07:29:54.479Z,38.03
2017-04-13T07:30:52.854Z,37.74
2017-04-13T07:31:50.628Z,40.30
2017-04-13T07:32:48.447Z,37.23
2017-04-13T07:33:46.289Z,37.46
2017-04-13T07:34:44.104Z,37.33
2017-04-13T07:35:41.983Z,41.01
2017-04-13T07:36:39.932Z,35.93
2017-04-13T07:37:37.756Z,36.16
2017-04-13T07:38:35.589Z,34.51
2017-04-13T07:39:33.490Z,34.64
2017-04-13T07:40:31.381Z,33.66
2017-04-13T07:41:29.194Z,32.37
2017-04-13T07:42:27.104Z,32.91
2017-04-13T07:43:24.935Z,33.23
2017-04-13T07:44:22.912Z,32.44
2017-04-13T07:45:20.713Z,31.80
2017-04-13T07:46:18.704Z,30.53
2017-04-13T07:47:16.535Z,30.20
2017-04-13T07:48:14.403Z,30.93
2017-04-13T07:49:12.384Z,34.11
2017-04-13T07:50:10.211Z,31.13
2017-04-13T07:51:08.110Z,31.21
2017-04-13T07:52:05.951Z,31.61
2017-04-13T07:53:04.050Z,32.34
2017-04-13T07:54:01.913Z,31.81
2017-04-13T07:54:59.760Z,32.64
2017-04-13T07:55:57.597Z,29.94
2017-04-13T07:56:55.519Z,32.26
2017-04-13T07:57:53.348Z,31.99
2017-04-13T07:58:51.180Z,34.21
2017-04-13T07:59:49.105Z,33.06
2017-04-13T08:00:47.039Z,33.53
2017-04-13T08:01:44.823Z,35.29
2017-04-13T08:02:42.708Z,33.50
2017-04-13T08:03:40.543Z,34.83
2017-04-13T08:04:38.477Z,34.66
2017-04-13T08:05:36.309Z,35.51
2017-04-13T08:06:34.312Z,33.29
2017-04-13T08:07:32.177Z,34.86
2017-04-13T08:08:30.056Z,34.60
2017-04-13T08:09:27.959Z,36.87
2017-04-13T08:10:25.777Z,34.93
2017-04-13T08:11:23.700Z,33.66
2017-04-13T08:12:21.550Z,36.90
2017-04-13T08:13:19.485Z,36.79
2017-04-13T08:14:17.388Z,36.29
2017-04-13T08:15:15.264Z,36.26
2017-04-13T08:16:13.109Z,38.00
2017-04-13T08:17:11.037Z,37.53
2017-04-13T08:18:08.883Z,34.53
2017-04-13T08:19:06.766Z,35.69
2017-04-13T08:20:04.752Z,37.20
2017-04-13T08:21:02.680Z,35.13
2017-04-13T08:22:00.529Z,36.30
2017-04-13T08:22:58.392Z,38.39
2017-04-13T08:23:56.275Z,40.01
2017-04-13T08:24:54.151Z,35.69
2017-04-13T08:25:51.992Z,37.87
2017-04-13T08:26:49.910Z,39.59
2017-04-13T08:27:47.734Z,39.21
2017-04-13T08:28:45.567Z,39.51
2017-04-13T08:29:43.516Z,38.69
2017-04-13T08:30:41.350Z,36.26
2017-04-13T08:31:39.243Z,38.93
2017-04-13T08:32:37.039Z,40.01
2017-04-13T08:33:35.160Z,41.06
2017-04-13T08:34:33.021Z,39.61
2017-04-13T08:35:30.877Z,38.50
2017-04-13T08:36:28.695Z,36.96
2017-04-13T08:37:26.519Z,37.87
2017-04-13T08:38:24.419Z,40.01
2017-04-13T08:39:22.292Z,38.09
2017-04-13T08:40:20.204Z,38.24
2017-04-13T08:41:18.063Z,41.26
2017-04-13T08:42:15.881Z,38.36
2017-04-13T08:43:13.877Z,36.76
2017-04-13T08:44:11.689Z,37.04
2017-04-13T08:45:09.735Z,36.87
2017-04-13T08:46:07.536Z,39.63
2017-04-13T08:47:05.509Z,39.49
2017-04-13T08:48:03.409Z,37.84
2017-04-13T08:49:01.280Z,38.70
2017-04-13T08:49:59.098Z,39.04
2017-04-13T08:50:56.939Z,38.91
2017-04-13T08:51:55.002Z,40.81
2017-04-13T08:52:52.858Z,40.61
2017-04-13T08:53:50.664Z,38.46
2017-04-13T08:54:48.520Z,42.96
2017-04-13T08:55:46.352Z,39.59
2017-04-13T08:56:44.300Z,39.94
2017-04-13T08:57:42.113Z,38.34
2017-04-13T08:58:40.016Z,40.21
2017-04-13T08:59:37.836Z,39.89
2017-04-13T09:00:35.868Z,39.27
2017-04-13T09:01:33.776Z,39.17
2017-04-13T09:02:31.595Z,39.77
2017-04-13T09:03:29.496Z,40.13
2017-04-13T09:04:27.319Z,37.84
2017-04-13T09:05:25.272Z,34.60
2017-04-13T09:06:23.132Z,36.10
2017-04-13T09:07:21.023Z,36.90
2017-04-13T09:08:18.872Z,37.03
2017-04-13T09:09:16.693Z,37.99
2017-04-13T09:10:14.675Z,36.60
2017-04-13T09:11:12.510Z,33.84
2017-04-13T09:12:10.418Z,34.04
2017-04-13T09:13:08.271Z,34.44
2017-04-13T09:14:06.200Z,32.86
2017-04-13T09:15:04.136Z,32.23
2017-04-13T09:16:02.076Z,31.23
2017-04-13T09:16:59.953Z,31.49
2017-04-13T09:17:57.780Z,31.43
2017-04-13T09:18:55.633Z,33.39
2017-04-13T09:19:53.515Z,31.74
2017-04-13T09:20:51.441Z,32.10
2017-04-13T09:21:49.289Z,30.59
2017-04-13T09:22:47.119Z,30.77
2017-04-13T09:23:45.060Z,30.90
2017-04-13T09:24:42.932Z,32.19
2017-04-13T09:25:40.792Z,31.84
2017-04-13T09:26:38.644Z,31.41
2017-04-13T09:27:36.656Z,33.11
2017-04-13T09:28:34.484Z,31.36
2017-04-13T09:29:32.330Z,33.43
2017-04-13T09:30:30.257Z,31.19
2017-04-13T09:31:28.139Z,34.30
2017-04-13T09:32:26.045Z,31.46
2017-04-13T09:33:23.912Z,32.04
2017-04-13T09:34:21.792Z,31.83
2017-04-13T09:35:19.647Z,32.23
2017-04-13T09:36:17.511Z,31.40
2017-04-13T09:37:15.462Z,30.33
2017-04-13T09:38:13.292Z,29.00
2017-04-13T09:39:11.247Z,26.41
2017-04-13T09:40:09.105Z,24.64
2017-04-13T09:41:07.083Z,23.04
2017-04-13T09:42:04.948Z,22.96
2017-04-13T09:43:02.768Z,23.60
2017-04-13T09:44:00.713Z,22.00
2017-04-13T09:44:58.539Z,21.19
2017-04-13T09:45:56.589Z,23.13
2017-04-13T09:46:54.443Z,22.06
2017-04-13T09:47:52.284Z,23.43
2017-04-13T09:48:50.163Z,23.51
2017-04-13T09:49:48.049Z,22.87
2017-04-13T09:50:45.982Z,25.43
2017-04-13T09:51:43.784Z,25.06
2017-04-13T09:52:41.607Z,23.63
2017-04-13T09:53:39.422Z,24.04
2017-04-13T09:54:37.226Z,23.87
2017-04-13T09:55:35.070Z,24.20
2017-04-13T09:56:32.885Z,24.39
2017-04-13T09:57:30.729Z,21.17
2017-04-13T09:58:28.584Z,22.07
2017-04-13T09:59:26.709Z,22.43
2017-04-13T10:00:24.560Z,21.37
2017-04-13T10:01:22.558Z,21.93
2017-04-13T10:02:20.388Z,21.21
2017-04-13T10:03:18.231Z,21.46
2017-04-13T10:04:16.076Z,20.69
2017-04-13T10:05:13.926Z,21.44
2017-04-13T10:06:11.781Z,19.71
2017-04-13T10:07:09.588Z,20.20
2017-04-13T10:08:07.476Z,19.44
2017-04-13T10:09:05.447Z,18.29
2017-04-13T10:10:03.248Z,18.97
2017-04-13T10:11:01.057Z,17.40
2017-04-13T10:11:58.908Z,19.41
2017-04-13T10:12:56.741Z,16.17
2017-04-13T10:13:54.580Z,17.73
2017-04-13T10:14:52.457Z,16.21
2017-04-13T10:15:50.288Z,15.56
2017-04-13T10:16:48.277Z,14.77
2017-04-13T10:17:46.135Z,16.23
2017-04-13T10:18:43.931Z,15.29
2017-04-13T10:19:41.886Z,14.19
2017-04-13T10:20:39.712Z,12.14
2017-04-13T10:21:37.790Z,11.66
2017-04-13T10:22:35.676Z,10.99
2017-04-13T10:23:33.597Z,10.89
2017-04-13T10:24:31.418Z,10.26
2017-04-13T10:25:29.215Z,12.60
2017-04-13T10:26:27.196Z,11.93
2017-04-13T10:27:25.023Z,12.46
2017-04-13T10:28:22.911Z,13.23
2017-04-13T10:29:20.754Z,11.74
2017-04-13T10:30:18.679Z,11.06
2017-04-13T10:31:16.543Z,10.80
2017-04-13T10:32:14.364Z,10.17
2017-04-13T10:33:12.314Z,10.31
2017-04-13T10:34:10.119Z,10.04
2017-04-13T10:35:08.101Z,9.00
2017-04-13T10:36:05.916Z,9.23
2017-04-13T10:37:03.928Z,9.90
2017-04-13T10:38:01.786Z,9.17
2017-04-13T10:38:59.768Z,9.54
2017-04-13T10:40:01.199Z,8.04
2017-04-13T10:40:59.297Z,7.90
2017-04-13T10:54:57.361Z,7.03
2017-04-13T10:55:55.204Z,7.10
2017-04-13T10:56:53.092Z,7.97
2017-04-13T10:57:51.137Z,6.76
2017-04-13T10:58:49.133Z,6.60
2017-04-13T10:59:47.023Z,6.57
2017-04-13T11:00:44.913Z,6.64
2017-04-13T11:01:42.755Z,5.14
2017-04-13T11:02:40.637Z,5.76
2017-04-13T11:03:38.496Z,6.04
2017-04-13T11:04:36.322Z,5.30
2017-04-13T11:05:34.214Z,6.01
2017-04-13T11:06:32.076Z,5.77
2017-04-13T11:07:29.893Z,6.70
2017-04-13T11:08:27.697Z,5.84
2017-04-13T11:09:25.580Z,4.97
2017-04-13T11:10:23.406Z,4.44
2017-04-13T11:11:24.063Z,4.36
2017-04-13T11:12:21.868Z,3.83
2017-04-13T11:13:19.777Z,4.14
2017-04-13T11:14:17.654Z,4.44
2017-04-13T11:15:15.628Z,4.61
2017-04-13T11:16:13.407Z,6.06
2017-04-13T11:17:11.454Z,4.30
2017-04-13T11:18:09.312Z,4.40
2017-04-13T11:19:07.105Z,4.37
2017-04-13T11:20:05.019Z,4.81
2017-04-13T11:21:02.826Z,4.77
2017-04-13T11:22:00.828Z,4.21
2017-04-13T11:22:58.707Z,4.66
2017-04-13T11:23:56.572Z,4.63
2017-04-13T11:24:54.402Z,4.16
2017-04-13T11:25:52.257Z,3.34
2017-04-13T11:26:50.156Z,4.10
2017-04-13T11:27:47.970Z,4.20
2017-04-13T11:28:45.934Z,3.34
2017-04-13T11:29:43.750Z,3.01
2017-04-13T11:30:41.712Z,3.41
2017-04-13T11:31:39.580Z,3.44
2017-04-13T11:32:37.409Z,3.19
2017-04-13T11:33:35.368Z,3.46
2017-04-13T11:34:33.533Z,3.49
2017-04-13T11:35:31.392Z,3.49
2017-04-13T11:36:29.236Z,3.33
2017-04-13T11:37:27.071Z,3.77
2017-04-13T11:38:24.904Z,3.24
2017-04-13T11:39:22.757Z,3.06
2017-04-13T11:40:20.627Z,3.61
2017-04-13T11:41:18.448Z,3.71
2017-04-13T11:42:16.304Z,3.31
2017-04-13T11:43:14.113Z,3.56
2017-04-13T11:44:12.067Z,3.24
2017-04-13T11:45:09.964Z,4.04
2017-04-13T11:46:07.850Z,3.03
2017-04-13T11:47:05.755Z,3.67
2017-04-13T11:48:03.635Z,3.44
2017-04-13T11:49:01.515Z,3.53
2017-04-13T11:49:59.361Z,3.70
2017-04-13T11:50:57.344Z,3.06
2017-04-13T11:51:55.200Z,3.50
2017-04-13T11:52:53.048Z,3.93
2017-04-13T11:53:50.906Z,3.39
2017-04-13T11:54:48.868Z,3.40
2017-04-13T11:55:46.673Z,3.31
2017-04-13T11:56:44.544Z,4.21
2017-04-13T11:57:42.549Z,3.79
2017-04-13T11:58:40.392Z,4.09
2017-04-13T11:59:38.244Z,3.86
2017-04-13T12:00:36.102Z,4.27
2017-04-13T12:01:33.953Z,3.76
2017-04-13T12:02:31.993Z,3.66
2017-04-13T12:03:29.856Z,4.01
2017-04-13T12:04:27.651Z,3.30
2017-04-13T12:05:25.508Z,4.50
2017-04-13T12:06:23.351Z,3.83
2017-04-13T12:07:21.168Z,4.31
2017-04-13T12:08:19.003Z,3.94
2017-04-13T12:09:16.844Z,4.29
2017-04-13T12:10:14.666Z,4.00
2017-04-13T12:11:12.586Z,3.86
2017-04-13T12:12:10.407Z,3.49
2017-04-13T12:13:08.316Z,4.66
2017-04-13T12:14:06.221Z,4.33
2017-04-13T12:15:04.169Z,4.50
2017-04-13T12:16:02.123Z,5.33
2017-04-13T12:16:59.976Z,5.04
2017-04-13T12:17:57.795Z,5.57
2017-04-13T12:18:55.691Z,5.81
2017-04-13T12:19:53.537Z,6.47
2017-04-13T12:20:51.419Z,6.10
2017-04-13T12:21:49.260Z,6.54
2017-04-13T12:22:47.093Z,5.77
2017-04-13T12:23:45.099Z,6.67
2017-04-13T12:24:42.900Z,6.13
2017-04-13T12:25:40.852Z,6.17
2017-04-13T12:26:38.684Z,6.11
2017-04-13T12:27:36.536Z,6.27
2017-04-13T12:28:34.464Z,5.99
2017-04-13T12:29:32.341Z,5.59
2017-04-13T12:30:30.184Z,5.09
2017-04-13T12:31:28.099Z,4.90
2017-04-13T12:32:25.925Z,5.24
2017-04-13T12:33:23.968Z,4.87
2017-04-13T12:34:21.862Z,4.94
2017-04-13T12:35:19.698Z,5.61
2017-04-13T12:36:17.548Z,5.77
2017-04-13T12:37:15.417Z,5.56
2017-04-13T12:38:13.288Z,4.69
2017-04-13T12:39:11.180Z,5.44
2017-04-13T12:40:09.178Z,5.17
2017-04-13T12:41:07.016Z,4.23
2017-04-13T12:42:04.885Z,5.34
2017-04-13T12:43:02.748Z,4.69
2017-04-13T12:44:00.608Z,4.66